createdAt,value
2022-11-18T00:04:55.242Z,99088.31
2022-11-18T00:10:24.227Z,99114.66
2022-11-18T00:15:48.277Z,99140.97
2022-11-18T00:21:18.416Z,99164.50
2022-11-18T00:26:44.074Z,99169.00
2022-11-18T00:32:14.380Z,99167.31
2022-11-18T00:37:37.660Z,99173.59
2022-11-18T00:43:01.305Z,99192.03
2022-11-18T00:48:31.722Z,99194.97
2022-11-18T00:53:55.397Z,99187.34
2022-11-18T00:59:24.012Z,99185.31
2022-11-18T01:04:54.011Z,99200.50
2022-11-18T01:10:23.203Z,99189.38
2022-11-18T01:15:49.624Z,99181.28
2022-11-18T01:21:20.398Z,99184.66
2022-11-18T01:26:44.573Z,99186.03
2022-11-18T01:32:29.314Z,99195.41
2022-11-18T01:37:57.815Z,99219.53
2022-11-18T01:43:26.635Z,99217.31
2022-11-18T01:49:00.882Z,99228.72
2022-11-18T01:54:41.075Z,99237.38
2022-11-18T02:00:11.231Z,99244.38
2022-11-18T02:05:41.735Z,99244.34
2022-11-18T02:11:34.375Z,99283.78
2022-11-18T02:17:13.143Z,99267.88
2022-11-18T02:23:05.515Z,99279.19
2022-11-18T02:28:53.733Z,99303.03
2022-11-18T02:34:33.521Z,99301.38
2022-11-18T02:40:08.608Z,99318.94
2022-11-18T02:45:43.322Z,99363.94
2022-11-18T02:51:18.015Z,99402.00
2022-11-18T02:56:48.647Z,99409.72
2022-11-18T03:02:21.245Z,99426.53
2022-11-18T03:07:55.936Z,99429.38
2022-11-18T03:13:36.108Z,99428.22
2022-11-18T03:19:11.189Z,99416.09
2022-11-18T03:24:43.860Z,99438.44
2022-11-18T03:30:18.480Z,99465.75
2022-11-18T03:35:52.838Z,99474.75
2022-11-18T03:41:30.696Z,99477.72
2022-11-18T03:47:05.570Z,99465.75
2022-11-18T03:52:38.475Z,99464.25
2022-11-18T03:58:13.951Z,99449.31
2022-11-18T04:03:43.545Z,99478.78
2022-11-18T04:09:24.092Z,99491.13
2022-11-18T04:14:55.517Z,99486.13
2022-11-18T04:20:25.411Z,99512.81
2022-11-18T04:25:55.217Z,99550.19
2022-11-18T04:31:23.897Z,99556.84
2022-11-18T04:36:53.114Z,99586.16
2022-11-18T04:42:23.697Z,99628.50
2022-11-18T04:47:52.972Z,99632.50
2022-11-18T04:53:22.410Z,99635.84
2022-11-18T04:58:52.209Z,99634.16
2022-11-18T05:04:23.537Z,99614.19
2022-11-18T05:09:53.144Z,99623.84
2022-11-18T05:15:24.969Z,99650.47
2022-11-18T05:20:54.406Z,99680.31
2022-11-18T05:26:18.366Z,99684.84
2022-11-18T05:31:43.900Z,99699.47
2022-11-18T05:37:07.862Z,99723.31
2022-11-18T05:42:49.826Z,99736.47
2022-11-18T05:48:15.871Z,99767.19
2022-11-18T05:53:41.089Z,99776.19
2022-11-18T05:59:06.495Z,99785.19
2022-11-18T06:04:41.808Z,99807.84
2022-11-18T06:10:14.352Z,99813.19
2022-11-18T06:15:45.956Z,99822.53
2022-11-18T06:21:16.529Z,99816.03
2022-11-18T06:26:46.950Z,99837.22
2022-11-18T06:32:11.081Z,99836.22
2022-11-18T06:37:37.786Z,99836.22
2022-11-18T06:43:33.333Z,99846.53
2022-11-18T06:49:03.924Z,99838.19
2022-11-18T06:54:35.059Z,99843.53
2022-11-18T07:00:02.221Z,99854.19
2022-11-18T07:05:26.208Z,99858.91
2022-11-18T07:10:55.242Z,99852.19
2022-11-18T07:16:21.871Z,99852.16
2022-11-18T07:21:52.179Z,99849.97
2022-11-18T07:27:17.104Z,99837.13
2022-11-18T07:32:41.190Z,99848.00
2022-11-18T07:38:11.082Z,99866.16
2022-11-18T07:43:36.714Z,99876.59
2022-11-18T07:49:06.929Z,99863.78
2022-11-18T07:54:30.936Z,99877.09
2022-11-18T08:00:01.501Z,99895.94
2022-11-18T08:05:41.067Z,99925.34
2022-11-18T08:11:07.204Z,99945.56
2022-11-18T08:16:32.539Z,99956.72
2022-11-18T08:21:55.511Z,99958.34
2022-11-18T08:27:19.228Z,99954.25
2022-11-18T08:32:44.036Z,99962.75
2022-11-18T08:38:07.270Z,99964.31
2022-11-18T08:43:36.855Z,99975.88
2022-11-18T08:49:03.647Z,99988.91
2022-11-18T08:54:27.539Z,100003.72
2022-11-18T08:59:50.845Z,100006.13
2022-11-18T09:05:15.734Z,100013.13
2022-11-18T09:10:41.155Z,100023.16
2022-11-18T09:16:06.027Z,100034.13
2022-11-18T09:21:34.621Z,100040.16
2022-11-18T09:27:04.560Z,100042.16
2022-11-18T09:32:28.344Z,100056.53
2022-11-18T09:37:53.294Z,100053.19
2022-11-18T09:43:27.255Z,100062.72
2022-11-18T09:49:09.498Z,100055.22
2022-11-18T09:54:38.334Z,100080.44
2022-11-18T10:00:02.434Z,100081.28
2022-11-18T10:05:49.660Z,100085.78
2022-11-18T10:11:18.182Z,100107.50
2022-11-18T10:16:52.752Z,100106.00
2022-11-18T10:22:33.181Z,100109.31
2022-11-18T10:28:14.939Z,100120.69
2022-11-18T10:33:40.011Z,100134.72
2022-11-18T10:39:21.479Z,100137.72
2022-11-18T10:44:46.380Z,100143.13
2022-11-18T10:50:31.297Z,100149.16
2022-11-18T10:56:01.055Z,100142.31
2022-11-18T11:01:31.467Z,100138.28
2022-11-18T11:07:00.707Z,100160.28
2022-11-18T11:12:30.720Z,100177.34
2022-11-18T11:18:34.639Z,100176.00
2022-11-18T11:24:10.525Z,100186.97
2022-11-18T11:30:10.272Z,100187.28
2022-11-18T11:35:51.764Z,100203.63
2022-11-18T11:41:24.069Z,100205.16
2022-11-18T11:47:20.621Z,100209.78
2022-11-18T11:53:15.683Z,100226.56
2022-11-18T11:59:00.363Z,100229.09
2022-11-18T12:04:40.578Z,100233.94
2022-11-18T12:10:39.278Z,100246.63
2022-11-18T12:16:22.845Z,100245.72
2022-11-18T12:21:58.258Z,100255.13
2022-11-18T12:28:00.237Z,100267.16
2022-11-18T12:33:29.109Z,100263.22
2022-11-18T12:38:59.457Z,100262.16
2022-11-18T12:44:29.963Z,100267.03
2022-11-18T12:50:15.216Z,100265.38
2022-11-18T12:55:43.765Z,100266.09
2022-11-18T13:01:17.407Z,100270.06
2022-11-18T13:06:46.390Z,100283.69
2022-11-18T13:12:19.155Z,100273.69
2022-11-18T13:17:55.683Z,100292.47
2022-11-18T13:23:47.556Z,100286.63
2022-11-18T13:29:31.911Z,100303.41
2022-11-18T13:35:12.435Z,100327.59
2022-11-18T13:41:04.283Z,100328.13
2022-11-18T13:46:33.431Z,100333.34
2022-11-18T13:52:03.587Z,100340.69
2022-11-18T13:57:32.322Z,100339.53
2022-11-18T14:03:04.092Z,100339.13
2022-11-18T14:08:36.384Z,100349.56
2022-11-18T14:14:05.498Z,100341.56
2022-11-18T14:19:35.344Z,100351.16
2022-11-18T14:25:19.787Z,100338.81
2022-11-18T14:31:02.164Z,100351.69
2022-11-18T14:36:31.259Z,100367.34
2022-11-18T14:42:01.845Z,100364.16
2022-11-18T14:47:34.085Z,100377.41
2022-11-18T14:53:04.604Z,100378.63
2022-11-18T14:58:35.943Z,100395.34
2022-11-18T15:04:06.167Z,100407.72
2022-11-18T15:09:35.249Z,100411.16
2022-11-18T15:15:06.240Z,100396.50
2022-11-18T15:20:38.428Z,100385.84
2022-11-18T15:26:20.263Z,100397.88
2022-11-18T15:31:51.023Z,100404.66
2022-11-18T15:37:20.048Z,100406.34
2022-11-18T15:42:52.247Z,100397.47
2022-11-18T15:48:22.452Z,100407.56
2022-11-18T15:54:02.011Z,100412.66
2022-11-18T15:59:31.342Z,100418.75
2022-11-18T16:05:01.560Z,100422.50
2022-11-18T16:10:48.017Z,100425.16
2022-11-18T16:16:20.830Z,100430.50
2022-11-18T16:21:53.098Z,100448.38
2022-11-18T16:27:22.320Z,100430.06
2022-11-18T16:32:53.039Z,100411.69
2022-11-18T16:38:22.899Z,100395.88
2022-11-18T16:43:49.620Z,100378.41
2022-11-18T16:49:14.852Z,100392.56
2022-11-18T16:54:44.765Z,100389.38
2022-11-18T17:00:10.788Z,100382.03
2022-11-18T17:05:34.922Z,100394.03
2022-11-18T17:11:17.675Z,100369.31
2022-11-18T17:16:44.350Z,100377.69
2022-11-18T17:22:08.032Z,100370.66
2022-11-18T17:27:38.819Z,100378.50
2022-11-18T17:33:07.382Z,100363.13
2022-11-18T17:38:31.981Z,100386.50
2022-11-18T17:44:04.096Z,100407.34
2022-11-18T17:49:59.729Z,100399.56
2022-11-18T17:55:23.857Z,100401.22
2022-11-18T18:00:49.739Z,100415.78
2022-11-18T18:06:14.159Z,100422.78
2022-11-18T18:11:38.073Z,100417.78
2022-11-18T18:17:12.012Z,100437.97
2022-11-18T18:22:42.659Z,100441.56
2022-11-18T18:28:26.288Z,100441.25
2022-11-18T18:34:22.228Z,100435.41
2022-11-18T18:39:49.632Z,100438.97
2022-11-18T18:45:35.522Z,100439.63
2022-11-18T18:51:06.115Z,100422.63
2022-11-18T18:56:33.621Z,100417.59
2022-11-18T19:02:03.140Z,100424.31
2022-11-18T19:07:53.296Z,100423.47
2022-11-18T19:13:34.346Z,100425.75
2022-11-18T19:19:47.151Z,100423.72
2022-11-18T19:25:37.922Z,100407.63
2022-11-18T19:31:18.996Z,100398.31
2022-11-18T19:36:48.364Z,100411.06
2022-11-18T19:42:20.419Z,100425.19
2022-11-18T19:47:49.319Z,100442.59
2022-11-18T19:53:33.756Z,100458.91
2022-11-18T19:59:03.791Z,100452.63
2022-11-18T20:04:33.083Z,100451.19
2022-11-18T20:10:02.357Z,100429.75
2022-11-18T20:15:32.658Z,100439.13
2022-11-18T20:21:07.611Z,100434.44
2022-11-18T20:26:39.287Z,100429.06
2022-11-18T20:32:09.517Z,100415.72
2022-11-18T20:37:38.134Z,100411.41
2022-11-18T20:43:13.137Z,100418.00
2022-11-18T20:48:43.742Z,100415.72
2022-11-18T20:54:12.377Z,100410.38
2022-11-18T20:59:41.380Z,100420.28
2022-11-18T21:05:11.819Z,100465.00
2022-11-18T21:10:41.777Z,100442.72
2022-11-18T21:16:14.009Z,100439.38
2022-11-18T21:21:49.067Z,100441.06
2022-11-18T21:27:20.792Z,100420.38
2022-11-18T21:32:49.287Z,100417.06
2022-11-18T21:38:19.647Z,100408.56
2022-11-18T21:44:05.014Z,100400.72
2022-11-18T21:49:35.458Z,100399.81
2022-11-18T21:55:06.320Z,100407.66
2022-11-18T22:00:35.513Z,100421.94
2022-11-18T22:06:05.509Z,100412.00
2022-11-18T22:11:35.595Z,100400.84
2022-11-18T22:17:04.411Z,100400.84
2022-11-18T22:22:33.167Z,100376.69
2022-11-18T22:28:04.835Z,100378.41
2022-11-18T22:33:42.255Z,100359.88
2022-11-18T22:39:11.446Z,100335.88
2022-11-18T22:44:41.895Z,100346.00
2022-11-18T22:50:11.643Z,100345.25
2022-11-18T22:55:40.221Z,100342.94
2022-11-18T23:01:13.287Z,100327.09
2022-11-18T23:06:43.683Z,100321.25
2022-11-18T23:12:26.582Z,100329.94
2022-11-18T23:17:57.729Z,100295.06
2022-11-18T23:23:20.953Z,100289.88
2022-11-18T23:28:44.798Z,100276.84
2022-11-18T23:34:12.386Z,100285.22
2022-11-18T23:39:37.302Z,100286.56
2022-11-18T23:45:05.071Z,100289.59
2022-11-18T23:50:39.268Z,100270.19
2022-11-18T23:56:04.774Z,100265.19
